Time;durP1;ratioP1;P1;durP2;ratioP2;P2;SDS_P1;SDS_P2;PMS_P1;PMS_P2;Temp;Humidity;BMP_temperature;BMP_pressure;BME280_temperature;BME280_humidity;BME280_pressure;Samples;Min_cycle;Max_cycle;Signal;HPM_P1;HPM_P2
2022/12/10 00:01:42;;;;;;;66.55;31.98;;;-0.40;99.90;;;;;;4984162;28;20035;-80
2022/12/10 00:04:08;;;;;;;65.70;31.48;;;-0.40;99.90;;;;;;4955650;28;20027;-80
2022/12/10 00:06:34;;;;;;;72.45;34.20;;;-0.30;99.90;;;;;;4964940;28;20043;-80
2022/12/10 00:09:00;;;;;;;73.35;32.63;;;-0.30;99.90;;;;;;4954962;28;20077;-80
2022/12/10 00:11:26;;;;;;;69.00;32.08;;;-0.30;99.90;;;;;;4983363;28;20138;-80
2022/12/10 00:13:52;;;;;;;68.63;32.90;;;-0.30;99.90;;;;;;4967017;28;20030;-80
2022/12/10 00:16:18;;;;;;;72.55;34.03;;;-0.30;99.90;;;;;;4955792;28;20053;-80
2022/12/10 00:18:44;;;;;;;68.60;31.73;;;-0.30;99.90;;;;;;4936460;28;20039;-79
2022/12/10 00:21:12;;;;;;;73.15;32.80;;;-0.30;99.90;;;;;;4954890;28;20049;-79
2022/12/10 00:23:37;;;;;;;66.15;32.08;;;-0.40;99.90;;;;;;4982142;28;20041;-80
2022/12/10 00:26:04;;;;;;;73.75;32.47;;;-0.40;99.90;;;;;;4986712;28;20030;-79
2022/12/10 00:28:29;;;;;;;69.63;31.95;;;-0.50;99.90;;;;;;4956912;28;20037;-79
2022/12/10 00:30:55;;;;;;;68.93;32.15;;;-0.60;99.90;;;;;;4955367;28;20035;-79
2022/12/10 00:33:20;;;;;;;69.28;33.90;;;-0.60;99.90;;;;;;4987579;28;20022;-79
2022/12/10 00:35:46;;;;;;;69.80;34.15;;;-0.60;99.90;;;;;;4957747;28;20790;-79
2022/12/10 00:38:11;;;;;;;73.75;32.97;;;-0.60;99.90;;;;;;4971705;28;20828;-80
2022/12/10 00:40:37;;;;;;;69.97;32.38;;;-0.70;99.90;;;;;;4969187;28;20042;-79
2022/12/10 00:43:03;;;;;;;67.70;32.42;;;-0.70;99.90;;;;;;4972561;28;20030;-79
2022/12/10 00:45:28;;;;;;;58.22;25.60;;;-0.70;99.90;;;;;;4993978;28;20504;-79
2022/12/10 00:47:54;;;;;;;64.57;28.65;;;-0.60;99.90;;;;;;4973450;28;20393;-79
2022/12/10 00:50:19;;;;;;;72.70;33.22;;;-0.60;99.90;;;;;;4984852;28;20513;-79
2022/12/10 00:52:45;;;;;;;74.53;34.20;;;-0.60;99.90;;;;;;4955315;28;20062;-79
2022/12/10 00:55:10;;;;;;;77.93;33.20;;;-0.70;99.90;;;;;;4951310;28;20445;-80
2022/12/10 00:57:36;;;;;;;69.38;31.90;;;-0.70;99.90;;;;;;4970311;28;20561;-79
2022/12/10 01:00:01;;;;;;;77.75;34.60;;;-0.90;99.90;;;;;;4971839;28;20402;-79
2022/12/10 01:02:27;;;;;;;69.85;31.00;;;-0.80;99.90;;;;;;4969706;28;20570;-80
2022/12/10 01:04:53;;;;;;;59.15;28.20;;;-0.80;99.90;;;;;;4989266;28;20513;-79
2022/12/10 01:07:19;;;;;;;76.75;31.67;;;-0.70;99.90;;;;;;4971374;28;20069;-79
2022/12/10 01:09:44;;;;;;;68.35;31.05;;;-0.90;99.90;;;;;;4985022;28;20078;-79
2022/12/10 01:12:10;;;;;;;72.35;32.55;;;-0.80;99.90;;;;;;4970311;28;20031;-79
2022/12/10 01:14:36;;;;;;;55.63;26.00;;;-0.90;99.90;;;;;;4984474;28;20033;-79
2022/12/10 01:17:02;;;;;;;79.32;32.92;;;-0.90;99.90;;;;;;4954261;28;20085;-79
2022/12/10 01:19:28;;;;;;;86.30;38.95;;;-0.90;99.90;;;;;;4965484;28;20699;-79
2022/12/10 01:21:54;;;;;;;76.80;34.47;;;-0.90;99.90;;;;;;4983067;28;20026;-79
2022/12/10 01:24:21;;;;;;;62.47;27.23;;;-1.10;99.90;;;;;;4981480;28;20084;-79
2022/12/10 01:26:55;;;;;;;76.05;32.97;;;-0.90;99.90;;;;;;4954540;28;20026;-79
2022/12/10 01:29:21;;;;;;;80.97;35.08;;;-0.90;99.90;;;;;;4952146;28;20026;-80
2022/12/10 01:31:47;;;;;;;75.50;34.53;;;-1.10;99.90;;;;;;4964364;28;20049;-80
2022/12/10 01:34:13;;;;;;;80.93;34.92;;;-1.20;99.90;;;;;;4970752;28;20068;-79
2022/12/10 01:36:43;;;;;;;71.15;31.50;;;-1.20;99.90;;;;;;4985374;28;20483;-80
2022/12/10 01:39:10;;;;;;;91.78;36.50;;;-1.30;99.90;;;;;;4955932;28;20027;-79
2022/12/10 01:41:38;;;;;;;77.18;32.47;;;-1.30;99.90;;;;;;4954596;28;20439;-79
2022/12/10 01:44:09;;;;;;;78.50;34.03;;;-1.30;99.90;;;;;;4953634;28;20037;-80
2022/12/10 01:46:35;;;;;;;81.90;34.22;;;-1.40;99.90;;;;;;4986705;28;20022;-79
2022/12/10 01:49:02;;;;;;;77.68;33.83;;;-1.50;99.90;;;;;;4986202;28;20092;-79
2022/12/10 01:51:29;;;;;;;80.85;34.75;;;-1.50;99.90;;;;;;4972291;28;20113;-79
2022/12/10 01:53:54;;;;;;;78.47;33.22;;;-1.50;99.90;;;;;;4968076;28;20030;-79
2022/12/10 01:56:20;;;;;;;59.45;26.58;;;-1.50;99.90;;;;;;4937848;28;20541;-79
2022/12/10 01:58:46;;;;;;;74.65;31.73;;;-1.40;99.90;;;;;;4955024;28;20115;-79
2022/12/10 02:01:35;;;;;;;59.47;27.27;;;-1.30;99.90;;;;;;4956565;28;20034;-79
2022/12/10 02:04:04;;;;;;;74.07;31.73;;;-1.20;99.90;;;;;;4972700;28;20035;-79
2022/12/10 02:06:35;;;;;;;67.30;30.80;;;-1.30;99.90;;;;;;4986167;28;20039;-79
2022/12/10 02:09:30;;;;;;;54.22;25.52;;;-1.40;99.90;;;;;;4971649;28;20038;-79
2022/12/10 02:12:06;;;;;;;54.28;24.20;;;-1.30;99.90;;;;;;4964152;28;20506;-79
2022/12/10 02:14:41;;;;;;;;;;;-1.20;99.90;;;;;;4985885;28;20085;-79
2022/12/10 02:17:16;;;;;;;56.10;24.27;;;-1.20;99.90;;;;;;4983150;28;19965;-79
2022/12/10 02:20:06;;;;;;;54.22;24.60;;;-1.20;99.90;;;;;;4984396;28;20109;-79
2022/12/10 02:22:38;;;;;;;58.75;26.10;;;-1.20;99.90;;;;;;4988885;28;21024;-80
2022/12/10 02:25:04;;;;;;;55.28;24.27;;;-1.20;99.90;;;;;;4956578;28;20026;-80
2022/12/10 02:27:46;;;;;;;51.28;23.80;;;-1.30;99.90;;;;;;4984649;28;20027;-79
2022/12/10 02:30:11;;;;;;;50.47;22.88;;;-1.40;99.90;;;;;;4968207;28;20030;-79
2022/12/10 02:32:40;;;;;;;58.83;27.80;;;-1.40;99.90;;;;;;4957027;28;20026;-79
2022/12/10 02:35:09;;;;;;;65.63;29.58;;;-1.40;99.90;;;;;;4956433;28;20113;-79
2022/12/10 02:37:38;;;;;;;69.53;30.35;;;-1.50;99.90;;;;;;4972590;28;20038;-79
2022/12/10 02:40:07;;;;;;;62.88;27.85;;;-1.50;99.90;;;;;;4955219;28;20034;-79
2022/12/10 02:42:34;;;;;;;69.15;28.50;;;-1.60;99.90;;;;;;4981794;28;20033;-79
2022/12/10 02:44:59;;;;;;;46.97;22.23;;;-1.50;99.90;;;;;;4970442;28;20043;-79
2022/12/10 02:47:25;;;;;;;55.53;23.17;;;-1.50;99.90;;;;;;4972661;28;20153;-79
2022/12/10 02:49:52;;;;;;;85.22;29.65;;;-1.30;99.90;;;;;;4950336;28;20418;-79
2022/12/10 02:52:18;;;;;;;89.70;26.17;;;-1.40;99.90;;;;;;4958972;28;20085;-78
2022/12/10 02:54:45;;;;;;;64.68;25.80;;;-1.50;99.90;;;;;;4970500;28;20050;-79
2022/12/10 02:57:17;;;;;;;88.90;27.23;;;-1.40;99.90;;;;;;4969835;28;20066;-79
2022/12/10 03:00:04;;;;;;;68.30;26.48;;;-1.40;99.90;;;;;;4969652;28;20120;-79
2022/12/10 03:02:52;;;;;;;85.85;29.48;;;-1.40;99.90;;;;;;4969161;28;20109;-79
2022/12/10 03:05:22;;;;;;;79.03;30.15;;;-1.40;99.90;;;;;;4985162;28;20037;-79
2022/12/10 03:07:57;;;;;;;73.68;29.40;;;-1.40;99.90;;;;;;4953957;28;20038;-79
2022/12/10 03:10:49;;;;;;;48.45;21.25;;;-1.40;99.90;;;;;;4971446;28;20113;-79
2022/12/10 03:13:15;;;;;;;78.60;30.27;;;-1.30;99.90;;;;;;4986454;28;20022;-79
2022/12/10 03:15:41;;;;;;;72.63;30.30;;;-1.30;99.90;;;;;;4978975;28;20030;-79
2022/12/10 03:18:07;;;;;;;77.90;29.58;;;-1.40;99.90;;;;;;4939043;28;20030;-79
2022/12/10 03:20:34;;;;;;;59.67;26.13;;;-1.40;99.90;;;;;;4954590;28;20088;-79
2022/12/10 03:22:59;;;;;;;50.00;22.42;;;-1.30;99.90;;;;;;4986614;28;20118;-79
2022/12/10 03:25:26;;;;;;;58.25;23.50;;;-1.20;99.90;;;;;;4949856;28;20601;-79
2022/12/10 03:27:54;;;;;;;62.40;28.55;;;-1.10;99.90;;;;;;4954888;28;20045;-79
2022/12/10 03:30:20;;;;;;;52.17;23.15;;;-1.10;99.90;;;;;;4953814;28;20034;-79
2022/12/10 03:32:46;;;;;;;56.72;23.10;;;-1.10;99.90;;;;;;4954482;28;20170;-79
2022/12/10 03:35:11;;;;;;;48.25;20.95;;;-1.00;99.90;;;;;;4939080;28;20847;-79
2022/12/10 03:37:37;;;;;;;58.30;24.98;;;-1.00;99.90;;;;;;4966453;28;20038;-79
2022/12/10 03:40:04;;;;;;;62.50;25.38;;;-0.90;99.90;;;;;;4952896;28;20036;-79
2022/12/10 03:42:30;;;;;;;62.60;25.10;;;-0.90;99.90;;;;;;4955897;28;20384;-79
2022/12/10 03:44:55;;;;;;;62.65;25.98;;;-0.90;99.90;;;;;;4969683;28;20045;-79
2022/12/10 03:47:21;;;;;;;68.70;28.15;;;-1.00;99.90;;;;;;4958191;28;20895;-79
2022/12/10 03:49:46;;;;;;;57.92;22.65;;;-0.90;99.90;;;;;;4954447;28;20395;-79
2022/12/10 03:52:12;;;;;;;40.40;17.52;;;-0.90;99.90;;;;;;4967356;28;20510;-79
2022/12/10 03:54:38;;;;;;;50.88;21.00;;;-0.60;99.90;;;;;;4970685;28;20046;-79
2022/12/10 03:57:03;;;;;;;74.22;30.98;;;-0.50;99.90;;;;;;4972811;28;20070;-79
2022/12/10 03:59:29;;;;;;;65.05;28.08;;;-0.70;99.90;;;;;;4954182;28;20035;-79
2022/12/10 04:01:54;;;;;;;69.10;29.42;;;-0.90;99.90;;;;;;4986686;28;20028;-79
2022/12/10 04:04:20;;;;;;;72.07;29.38;;;-0.90;99.90;;;;;;4970586;28;20026;-79
2022/12/10 04:06:45;;;;;;;42.45;20.42;;;-0.90;99.90;;;;;;4954071;28;20081;-79
2022/12/10 04:09:11;;;;;;;53.75;24.05;;;-0.80;99.90;;;;;;4954414;28;20019;-79
2022/12/10 04:11:37;;;;;;;57.10;24.30;;;-0.60;99.90;;;;;;4982364;28;20138;-78
2022/12/10 04:16:47;;;;;;;66.68;29.13;;;-0.50;99.90;;;;;;4985268;28;20029;-79
2022/12/10 04:19:17;;;;;;;69.28;29.38;;;-0.60;99.90;;;;;;4964263;28;20486;-79
2022/12/10 04:27:18;;;;;;;39.25;17.02;;;-0.60;99.90;;;;;;4965923;28;20028;-79
2022/12/10 04:29:43;;;;;;;75.50;30.30;;;-0.60;99.90;;;;;;4966911;28;20034;-79
2022/12/10 04:32:09;;;;;;;69.10;27.88;;;-0.70;99.90;;;;;;4969191;28;20042;-79
2022/12/10 04:34:34;;;;;;;64.70;27.08;;;-0.70;99.90;;;;;;4971805;28;20034;-79
2022/12/10 04:37:00;;;;;;;59.47;24.00;;;-0.60;99.90;;;;;;4966590;28;20559;-79
2022/12/10 04:39:26;;;;;;;47.47;20.10;;;-0.60;99.90;;;;;;4958915;28;20437;-79
2022/12/10 04:41:51;;;;;;;60.58;26.98;;;-0.50;99.90;;;;;;4954265;28;20048;-79
2022/12/10 04:44:18;;;;;;;45.45;20.83;;;-0.50;99.90;;;;;;4953366;28;20053;-79
2022/12/10 04:46:43;;;;;;;67.32;28.83;;;-0.50;99.90;;;;;;4967750;28;20037;-79
2022/12/10 04:49:09;;;;;;;69.38;28.35;;;-0.50;99.90;;;;;;4954917;28;20034;-79
2022/12/10 04:51:34;;;;;;;71.10;30.83;;;-0.70;99.90;;;;;;4985278;28;20029;-79
2022/12/10 04:54:00;;;;;;;69.43;29.75;;;-0.80;99.90;;;;;;4950575;28;20102;-79
2022/12/10 04:56:26;;;;;;;55.47;22.60;;;-0.80;99.90;;;;;;4982861;28;20022;-79
2022/12/10 04:58:51;;;;;;;64.20;23.85;;;-0.70;99.90;;;;;;4985498;28;20553;-79
2022/12/10 05:01:18;;;;;;;56.00;26.13;;;-0.50;99.90;;;;;;4968592;28;20030;-79
2022/12/10 05:03:44;;;;;;;61.55;27.17;;;-0.40;99.90;;;;;;4951012;28;20498;-79
2022/12/10 05:06:11;;;;;;;72.60;28.23;;;-0.40;99.90;;;;;;4965817;28;20046;-79
2022/12/10 05:08:37;;;;;;;44.45;20.60;;;-0.50;99.90;;;;;;4969074;28;20035;-79
2022/12/10 05:11:07;;;;;;;62.88;25.45;;;-0.50;99.90;;;;;;4954392;28;20034;-79
2022/12/10 05:13:33;;;;;;;61.20;26.30;;;-0.50;99.90;;;;;;4956988;28;20481;-79
2022/12/10 05:16:01;;;;;;;65.22;28.15;;;-0.60;99.90;;;;;;4967800;28;20054;-80
2022/12/10 05:18:27;;;;;;;62.80;27.45;;;-0.80;99.90;;;;;;4968770;28;20486;-79
2022/12/10 05:20:52;;;;;;;54.60;23.92;;;-0.80;99.90;;;;;;4966641;28;20038;-79
2022/12/10 05:23:29;;;;;;;66.25;28.20;;;-0.80;99.90;;;;;;4984274;28;20117;-79
2022/12/10 05:26:14;;;;;;;65.93;29.20;;;-0.70;99.90;;;;;;4954740;28;20512;-78
2022/12/10 05:28:54;;;;;;;48.28;20.92;;;-0.90;99.90;;;;;;4967904;28;20516;-79
2022/12/10 05:31:21;;;;;;;43.35;18.45;;;-1.00;99.90;;;;;;4970877;28;20088;-79
2022/12/10 05:33:47;;;;;;;46.63;19.80;;;-1.00;99.90;;;;;;4967879;28;20502;-79
2022/12/10 05:36:13;;;;;;;49.42;22.20;;;-1.10;99.90;;;;;;4946695;28;20031;-79
2022/12/10 05:38:39;;;;;;;46.17;21.40;;;-1.00;99.90;;;;;;4968628;28;20055;-78
2022/12/10 05:41:05;;;;;;;51.00;22.50;;;-1.00;99.90;;;;;;4968199;28;20043;-79
2022/12/10 05:43:31;;;;;;;57.38;25.40;;;-1.00;99.90;;;;;;4973298;28;20046;-79
2022/12/10 05:46:01;;;;;;;65.40;28.90;;;-1.10;99.90;;;;;;4972429;28;20030;-79
2022/12/10 05:48:26;;;;;;;62.70;26.10;;;-1.40;99.90;;;;;;4971161;28;20504;-79
2022/12/10 05:50:52;;;;;;;62.22;27.40;;;-1.40;99.90;;;;;;4987374;28;20022;-79
2022/12/10 05:53:18;;;;;;;46.75;19.48;;;-1.40;99.90;;;;;;4956636;28;20035;-79
2022/12/10 05:55:43;;;;;;;47.00;21.45;;;-1.20;99.90;;;;;;4970054;28;20085;-79
2022/12/10 05:58:10;;;;;;;44.38;20.63;;;-1.30;99.90;;;;;;4971349;28;20046;-79
2022/12/10 06:00:38;;;;;;;59.38;26.80;;;-1.20;99.90;;;;;;4970150;28;20031;-79
2022/12/10 06:03:04;;;;;;;56.42;25.50;;;-1.40;99.90;;;;;;4973532;28;20030;-79
2022/12/10 06:05:29;;;;;;;49.22;22.50;;;-1.50;99.90;;;;;;4972657;28;20482;-79
2022/12/10 06:07:55;;;;;;;41.58;17.40;;;-1.50;99.90;;;;;;4971125;28;20034;-79
2022/12/10 06:10:22;;;;;;;56.42;25.75;;;-1.50;99.90;;;;;;4962744;28;20125;-79
2022/12/10 06:12:48;;;;;;;57.33;23.63;;;-1.60;99.90;;;;;;4973138;28;20031;-78
2022/12/10 06:15:13;;;;;;;59.60;25.13;;;-1.80;99.90;;;;;;4972485;28;20108;-79
2022/12/10 06:17:39;;;;;;;57.63;23.27;;;-1.90;99.90;;;;;;4989280;28;20468;-78
2022/12/10 06:20:05;;;;;;;61.33;27.23;;;-1.90;99.90;;;;;;4972105;28;20058;-79
2022/12/10 06:22:31;;;;;;;49.42;20.80;;;-1.80;99.90;;;;;;4972535;28;25443;-79
2022/12/10 06:24:56;;;;;;;58.45;26.23;;;-1.90;99.90;;;;;;4986761;28;20033;-78
2022/12/10 06:27:22;;;;;;;66.40;29.27;;;-1.90;99.90;;;;;;4960056;28;20031;-78
2022/12/10 06:29:47;;;;;;;72.75;31.08;;;-2.20;99.90;;;;;;4956155;28;20027;-79
2022/12/10 06:32:13;;;;;;;55.00;21.95;;;-2.40;99.90;;;;;;4954384;28;20026;-79
2022/12/10 06:34:39;;;;;;;46.15;20.63;;;-2.30;99.90;;;;;;4969761;28;20034;-78
2022/12/10 06:37:04;;;;;;;53.83;23.33;;;-2.00;99.90;;;;;;4955873;28;20026;-78
2022/12/10 06:39:30;;;;;;;35.88;16.02;;;-1.90;99.90;;;;;;4955637;28;20390;-79
2022/12/10 06:41:55;;;;;;;54.40;25.23;;;-1.80;99.90;;;;;;4957286;28;20106;-79
2022/12/10 06:44:21;;;;;;;54.47;23.20;;;-1.80;99.90;;;;;;4969962;28;20094;-78
2022/12/10 06:46:46;;;;;;;57.65;23.77;;;-2.00;99.90;;;;;;4971584;28;20027;-79
2022/12/10 06:49:12;;;;;;;48.97;23.13;;;-2.10;99.90;;;;;;4956080;28;20058;-79
2022/12/10 06:51:38;;;;;;;43.22;18.73;;;-2.10;99.90;;;;;;4957355;28;20066;-79
2022/12/10 06:54:04;;;;;;;43.83;19.75;;;-2.00;99.90;;;;;;4956774;28;20034;-79
2022/12/10 06:56:30;;;;;;;43.92;19.75;;;-2.00;99.90;;;;;;4972367;28;20371;-79
2022/12/10 06:58:55;;;;;;;57.05;24.80;;;-2.20;99.90;;;;;;4953680;28;20164;-79
2022/12/10 07:01:25;;;;;;;56.83;24.58;;;-2.40;99.90;;;;;;4973658;28;20113;-79
2022/12/10 07:03:51;;;;;;;56.03;23.52;;;-2.50;99.90;;;;;;4975492;28;20128;-80
2022/12/10 07:06:17;;;;;;;48.55;21.30;;;-2.60;99.90;;;;;;4970039;28;20039;-80
2022/12/10 07:08:43;;;;;;;66.80;27.25;;;-2.70;99.90;;;;;;4965867;28;20035;-79
2022/12/10 07:11:13;;;;;;;66.55;28.77;;;-2.70;99.90;;;;;;4984635;28;20031;-79
2022/12/10 07:13:38;;;;;;;60.95;25.95;;;-2.70;99.90;;;;;;4974223;28;20092;-79
2022/12/10 07:16:14;;;;;;;57.90;24.48;;;-2.80;99.90;;;;;;4940080;28;20042;-79
2022/12/10 07:18:40;;;;;;;64.85;26.33;;;-2.60;99.90;;;;;;4987187;28;20042;-79
2022/12/10 07:21:22;;;;;;;62.38;27.55;;;-2.50;99.90;;;;;;4954736;28;20037;-77
2022/12/10 07:23:53;;;;;;;46.40;18.42;;;-2.50;99.90;;;;;;4970022;28;20165;-80
2022/12/10 07:26:19;;;;;;;36.42;15.32;;;-2.30;99.90;;;;;;4987046;28;20109;-77
2022/12/10 07:28:45;;;;;;;71.32;28.13;;;-2.10;99.90;;;;;;4986538;28;20047;-78
2022/12/10 07:31:10;;;;;;;59.15;25.38;;;-2.00;99.90;;;;;;4970827;28;20410;-78
2022/12/10 07:33:36;;;;;;;53.63;22.90;;;-2.00;99.90;;;;;;4957034;28;20038;-78
2022/12/10 07:36:09;;;;;;;54.83;21.48;;;-1.80;99.90;;;;;;4953853;28;20394;-78
2022/12/10 07:38:34;;;;;;;44.95;17.98;;;-1.60;99.90;;;;;;4966954;28;20036;-78
2022/12/10 07:41:08;;;;;;;50.05;20.15;;;-1.40;99.90;;;;;;4969679;28;20027;-78
2022/12/10 07:43:34;;;;;;;69.43;28.80;;;-1.40;99.90;;;;;;4985346;28;20037;-78
2022/12/10 07:46:09;;;;;;;53.65;21.35;;;-1.50;99.90;;;;;;4970544;28;20030;-78
2022/12/10 07:48:36;;;;;;;48.58;17.70;;;-1.40;99.90;;;;;;4969047;28;20097;-78
2022/12/10 07:51:02;;;;;;;55.63;23.67;;;-1.30;99.90;;;;;;4984687;28;20113;-78
2022/12/10 07:53:27;;;;;;;55.78;21.77;;;-1.20;99.90;;;;;;4964651;28;20656;-78
2022/12/10 07:55:53;;;;;;;58.78;23.58;;;-1.10;99.90;;;;;;4984285;28;20034;-79
2022/12/10 07:58:18;;;;;;;66.20;24.83;;;-1.10;99.90;;;;;;4967730;28;20045;-79
2022/12/10 08:00:44;;;;;;;62.60;22.50;;;-1.10;99.90;;;;;;4954111;28;20034;-79
2022/12/10 08:03:10;;;;;;;86.22;32.58;;;-1.00;99.90;;;;;;4984426;28;20121;-79
2022/12/10 08:05:35;;;;;;;57.17;23.52;;;-1.10;99.90;;;;;;4968289;28;20030;-78
2022/12/10 08:08:01;;;;;;;81.63;29.95;;;-1.00;99.90;;;;;;4969487;28;20043;-78
2022/12/10 08:10:27;;;;;;;77.10;29.52;;;-1.00;99.90;;;;;;4967787;28;20054;-79
2022/12/10 08:12:52;;;;;;;82.40;30.63;;;-1.00;99.90;;;;;;4953440;28;20081;-79
2022/12/10 08:15:19;;;;;;;75.80;26.73;;;-1.10;99.90;;;;;;4985413;28;20386;-79
2022/12/10 08:17:44;;;;;;;73.32;26.33;;;-1.00;99.90;;;;;;4970288;28;20346;-79
2022/12/10 08:20:10;;;;;;;67.07;26.05;;;-0.90;99.90;;;;;;4971178;28;20430;-79
2022/12/10 08:22:36;;;;;;;74.57;26.38;;;-0.90;99.90;;;;;;4969377;28;20458;-79
2022/12/10 08:25:02;;;;;;;71.30;26.75;;;-0.80;99.90;;;;;;4936481;28;20089;-79
2022/12/10 08:27:27;;;;;;;78.47;29.35;;;-0.80;99.90;;;;;;4970303;28;20031;-79
2022/12/10 08:29:53;;;;;;;61.28;22.02;;;-0.80;99.90;;;;;;4970976;28;20033;-80
2022/12/10 08:32:18;;;;;;;64.70;24.45;;;-0.70;99.90;;;;;;4983427;28;20061;-79
2022/12/10 08:34:44;;;;;;;73.63;26.45;;;-0.70;99.90;;;;;;4936890;28;20452;-79
2022/12/10 08:37:09;;;;;;;77.95;31.83;;;-0.60;99.90;;;;;;4968956;28;20031;-79
2022/12/10 08:39:35;;;;;;;90.68;34.33;;;-0.70;99.90;;;;;;4968610;28;20501;-79
2022/12/10 08:42:03;;;;;;;73.85;28.27;;;-0.60;99.90;;;;;;4983564;28;20052;-79
2022/12/10 08:44:29;;;;;;;76.65;28.13;;;-0.60;99.90;;;;;;4981548;28;20045;-79
2022/12/10 08:46:55;;;;;;;58.92;20.95;;;-0.60;99.90;;;;;;4984211;28;20029;-79
2022/12/10 08:49:30;;;;;;;69.63;26.00;;;-0.60;99.90;;;;;;4952897;28;20382;-79
2022/12/10 08:51:56;;;;;;;54.25;22.83;;;-0.50;99.90;;;;;;4971048;28;20556;-78
2022/12/10 08:54:21;;;;;;;71.38;28.08;;;-0.40;99.90;;;;;;4984743;28;20034;-79
2022/12/10 08:56:50;;;;;;;76.50;29.60;;;-0.40;99.90;;;;;;4967559;28;20027;-80
2022/12/10 08:59:16;;;;;;;85.90;32.90;;;-0.40;99.90;;;;;;4952457;28;20034;-80
2022/12/10 09:01:41;;;;;;;83.78;31.73;;;-0.40;99.90;;;;;;4985327;28;20387;-79
2022/12/10 09:04:07;;;;;;;68.82;28.48;;;-0.30;99.90;;;;;;4985230;28;20022;-79
2022/12/10 09:06:33;;;;;;;60.22;22.67;;;-0.40;99.90;;;;;;4971996;28;20074;-80
2022/12/10 09:08:59;;;;;;;73.25;29.08;;;-0.30;99.90;;;;;;4985098;28;20023;-79
2022/12/10 09:11:29;;;;;;;82.20;30.40;;;-0.20;99.90;;;;;;4983028;28;20031;-80
2022/12/10 09:14:01;;;;;;;64.82;24.90;;;-0.10;99.90;;;;;;4968484;28;20125;-79
2022/12/10 09:16:28;;;;;;;82.88;29.25;;;-0.20;99.90;;;;;;4954007;28;20478;-79
2022/12/10 09:18:54;;;;;;;60.10;23.73;;;-0.10;99.90;;;;;;4956943;28;20035;-80
2022/12/10 09:21:20;;;;;;;64.13;22.20;;;-0.20;99.90;;;;;;4985429;28;20117;-80
2022/12/10 09:23:46;;;;;;;66.00;26.48;;;-0.20;99.90;;;;;;4954021;28;20493;-81
2022/12/10 09:26:13;;;;;;;103.07;36.80;;;-0.10;99.90;;;;;;4971261;28;20114;-80
2022/12/10 09:28:38;;;;;;;74.10;28.65;;;-0.10;99.90;;;;;;4951401;28;20458;-80
2022/12/10 09:31:05;;;;;;;90.85;36.30;;;-0.10;99.90;;;;;;4983223;28;20026;-80
2022/12/10 09:33:30;;;;;;;66.30;26.88;;;0.00;99.90;;;;;;4968351;28;20109;-80
2022/12/10 09:35:56;;;;;;;63.28;24.58;;;0.00;99.90;;;;;;4986960;28;20117;-81
2022/12/10 09:38:22;;;;;;;111.13;37.17;;;0.00;99.90;;;;;;4951467;28;20479;-81
2022/12/10 09:41:01;;;;;;;65.10;27.38;;;0.00;99.90;;;;;;4971142;28;20031;-81
2022/12/10 09:43:35;;;;;;;79.32;29.58;;;0.00;99.90;;;;;;4970756;28;20545;-80
2022/12/10 09:46:24;;;;;;;77.47;28.63;;;0.10;99.90;;;;;;4985826;28;20030;-81
2022/12/10 09:49:11;;;;;;;61.47;25.00;;;0.20;99.90;;;;;;4985042;28;20034;-81
2022/12/10 09:51:37;;;;;;;68.63;24.98;;;0.20;99.90;;;;;;4986901;28;20029;-81
2022/12/10 09:54:04;;;;;;;65.40;26.60;;;0.10;99.90;;;;;;4972507;28;20035;-80
2022/12/10 09:56:32;;;;;;;72.85;28.80;;;0.20;99.90;;;;;;4970381;28;20089;-80
2022/12/10 09:58:58;;;;;;;90.00;34.40;;;0.20;99.90;;;;;;4983212;28;20030;-80
2022/12/10 10:01:25;;;;;;;81.60;32.20;;;0.20;99.90;;;;;;4984144;28;20046;-80
2022/12/10 10:03:51;;;;;;;74.65;27.52;;;0.20;99.90;;;;;;4971259;28;20529;-80
2022/12/10 10:06:16;;;;;;;78.80;30.13;;;0.20;99.90;;;;;;4953843;28;20042;-80
2022/12/10 10:08:44;;;;;;;92.22;34.72;;;0.30;99.90;;;;;;4967354;28;20038;-80
2022/12/10 10:11:12;;;;;;;71.13;29.33;;;0.30;99.90;;;;;;4984152;28;20486;-80
2022/12/10 10:13:43;;;;;;;80.43;32.47;;;0.30;99.90;;;;;;4954549;28;20470;-80
2022/12/10 10:16:25;;;;;;;73.13;27.45;;;0.30;99.90;;;;;;4982583;28;20439;-80
2022/12/10 10:19:10;;;;;;;86.35;33.92;;;0.30;99.90;;;;;;4971608;28;20131;-81
2022/12/10 10:21:40;;;;;;;90.13;33.78;;;0.30;99.90;;;;;;4986703;28;20030;-81
2022/12/10 10:24:06;;;;;;;81.13;34.65;;;0.40;99.90;;;;;;4957085;28;20030;-80
2022/12/10 10:26:32;;;;;;;59.33;21.77;;;0.30;99.90;;;;;;4970635;28;20113;-80
2022/12/10 10:29:00;;;;;;;64.78;25.83;;;0.40;99.90;;;;;;4988425;28;20104;-81
2022/12/10 10:31:28;;;;;;;73.82;27.85;;;0.40;99.90;;;;;;4971162;28;20374;-80
2022/12/10 10:33:59;;;;;;;91.53;37.10;;;0.40;99.90;;;;;;4957123;28;20039;-81
2022/12/10 10:36:26;;;;;;;95.43;38.28;;;0.40;99.90;;;;;;4935001;28;20037;-80
2022/12/10 10:38:52;;;;;;;111.85;40.65;;;0.40;99.90;;;;;;4972973;28;20566;-82
2022/12/10 10:41:17;;;;;;;82.25;29.52;;;0.40;99.90;;;;;;4959083;28;20126;-80
2022/12/10 10:43:49;;;;;;;65.07;23.45;;;0.40;99.90;;;;;;4958165;28;20117;-81
2022/12/10 10:46:21;;;;;;;65.55;26.08;;;0.50;99.90;;;;;;4942226;28;20143;-81
2022/12/10 10:48:46;;;;;;;83.90;31.98;;;0.50;99.90;;;;;;4973422;28;20483;-80
2022/12/10 10:53:59;;;;;;;76.68;31.67;;;0.60;99.90;;;;;;4968187;28;20096;-80
2022/12/10 10:56:29;;;;;;;76.78;28.00;;;0.60;99.90;;;;;;4972382;28;20113;-81
2022/12/10 10:59:30;;;;;;;38.38;14.20;;;0.70;99.90;;;;;;4967613;28;20506;-80
2022/12/10 11:02:16;;;;;;;40.83;15.20;;;0.70;99.90;;;;;;4963254;28;20490;-80
2022/12/10 11:04:49;;;;;;;82.35;31.45;;;0.60;99.90;;;;;;4948459;28;20038;-80
2022/12/10 11:07:38;;;;;;;88.88;33.30;;;0.60;99.90;;;;;;4952876;28;20078;-80
2022/12/10 11:10:19;;;;;;;93.47;35.53;;;0.60;99.90;;;;;;4964932;28;20119;-81
2022/12/10 11:13:04;;;;;;;24.67;10.82;;;0.60;99.90;;;;;;4968489;28;20039;-80
2022/12/10 11:15:34;;;;;;;54.17;23.02;;;0.60;99.90;;;;;;4970811;28;20032;-81
2022/12/10 11:24:48;;;;;;;74.80;29.05;;;0.70;99.90;;;;;;4939534;28;20063;-80
2022/12/10 11:28:01;;;;;;;67.22;26.05;;;0.70;99.90;;;;;;4958690;28;20043;-80
2022/12/10 11:30:27;;;;;;;73.05;26.80;;;0.70;99.90;;;;;;4989530;28;20034;-80
2022/12/10 11:33:03;;;;;;;67.82;27.42;;;0.80;99.90;;;;;;4940834;28;20027;-79
2022/12/10 11:36:06;;;;;;;73.82;29.95;;;0.80;99.90;;;;;;4947520;28;20037;-80
2022/12/10 11:38:54;;;;;;;64.65;22.92;;;0.90;99.90;;;;;;4982333;28;20038;-80
2022/12/10 11:41:39;;;;;;;89.95;35.13;;;0.90;99.90;;;;;;4981720;28;20446;-80
2022/12/10 11:44:19;;;;;;;66.47;27.60;;;1.00;99.90;;;;;;4981733;28;20060;-81
2022/12/10 11:47:00;;;;;;;72.32;30.10;;;0.90;99.90;;;;;;4954180;28;20073;-80
2022/12/10 11:49:35;;;;;;;52.17;17.38;;;1.00;99.90;;;;;;4973361;28;20042;-81
2022/12/10 11:52:18;;;;;;;65.93;28.05;;;1.00;99.90;;;;;;4972789;28;20564;-81
2022/12/10 11:54:56;;;;;;;52.03;23.05;;;1.00;99.90;;;;;;4986240;28;20035;-81
2022/12/10 11:57:43;;;;;;;49.75;21.13;;;1.00;99.90;;;;;;4981138;28;20550;-80
2022/12/10 12:00:19;;;;;;;67.13;27.48;;;1.00;99.90;;;;;;4966678;28;20467;-80
2022/12/10 12:03:10;;;;;;;64.78;22.45;;;1.00;99.90;;;;;;4970860;28;20041;-81
2022/12/10 12:06:20;;;;;;;55.75;22.35;;;1.00;99.90;;;;;;4943214;28;20058;-80
2022/12/10 12:08:52;;;;;;;55.40;24.83;;;1.00;99.90;;;;;;4931397;29;20028;-80
2022/12/10 12:11:30;;;;;;;65.35;27.17;;;1.10;99.90;;;;;;4982207;28;20030;-81
2022/12/10 12:14:02;;;;;;;65.45;25.25;;;1.10;99.90;;;;;;4968859;28;20035;-80
2022/12/10 12:16:30;;;;;;;57.80;24.40;;;1.10;99.90;;;;;;4968867;28;20030;-81
2022/12/10 12:19:33;;;;;;;48.30;21.33;;;1.10;99.90;;;;;;4624339;28;10000271;-81
2022/12/10 12:21:59;;;;;;;64.88;24.77;;;1.20;99.90;;;;;;4963984;28;20036;-80
2022/12/10 12:24:37;;;;;;;73.10;28.33;;;1.10;99.90;;;;;;4966767;28;20026;-81
2022/12/10 12:27:16;;;;;;;58.83;25.17;;;1.20;99.90;;;;;;4969042;28;20030;-81
2022/12/10 12:29:57;;;;;;;58.53;24.30;;;1.20;99.90;;;;;;4950939;28;20036;-80
2022/12/10 12:32:59;;;;;;;62.58;24.33;;;1.20;99.90;;;;;;4955021;28;20563;-80
2022/12/10 12:35:47;;;;;;;18.38;9.18;;;1.20;99.90;;;;;;4986004;28;20038;-80
2022/12/10 12:38:25;;;;;;;30.13;11.73;;;1.20;99.90;;;;;;4985330;28;20104;-80
2022/12/10 12:41:03;;;;;;;44.83;17.48;;;1.10;99.90;;;;;;4986038;28;20042;-81
2022/12/10 12:43:35;;;;;;;63.17;26.17;;;1.10;99.90;;;;;;4956725;28;20522;-80
2022/12/10 12:46:00;;;;;;;62.13;25.88;;;1.20;99.90;;;;;;4986642;28;20552;-81
2022/12/10 12:49:03;;;;;;;60.42;23.77;;;1.20;99.90;;;;;;4968569;28;20030;-80
2022/12/10 12:51:32;;;;;;;21.95;10.35;;;1.20;99.90;;;;;;4970933;28;20088;-80
2022/12/10 12:53:58;;;;;;;71.53;28.55;;;1.20;99.90;;;;;;4981901;28;20023;-80
2022/12/10 12:56:41;;;;;;;65.35;28.25;;;1.20;99.90;;;;;;4970084;28;20033;-80
2022/12/10 12:59:44;;;;;;;57.67;23.80;;;1.20;99.90;;;;;;4985649;28;20034;-81
2022/12/10 13:02:31;;;;;;;57.88;24.55;;;1.30;99.90;;;;;;4988385;28;20065;-81